Time;durP1;ratioP1;P1;durP2;ratioP2;P2;SDS_P1;SDS_P2;PMS_P1;PMS_P2;Temp;Humidity;BMP_temperature;BMP_pressure;BME280_temperature;BME280_humidity;BME280_pressure;Samples;Min_cycle;Max_cycle;Signal;HPM_P1;HPM_P2
2022/03/04 00:02:32;;;;;;;17.08;6.00;;;8.30;84.40;;;;;;10473261;28;20048;-68
2022/03/04 00:07:32;;;;;;;16.45;6.40;;;8.30;84.50;;;;;;10477646;28;20525;-67
2022/03/04 00:12:33;;;;;;;14.48;6.03;;;8.30;84.60;;;;;;10465870;28;20040;-64
2022/03/04 00:17:34;;;;;;;17.27;6.38;;;8.30;84.60;;;;;;10475027;28;20025;-64
2022/03/04 00:22:35;;;;;;;14.43;6.25;;;8.30;85.20;;;;;;10478807;28;20060;-64
2022/03/04 00:27:36;;;;;;;13.50;6.45;;;8.20;84.60;;;;;;10475739;28;20033;-68
2022/03/04 00:32:37;;;;;;;15.02;6.40;;;8.20;84.80;;;;;;10475669;28;20147;-68
2022/03/04 00:37:37;;;;;;;13.38;6.32;;;8.20;84.80;;;;;;10485162;28;20072;-66
2022/03/04 00:42:38;;;;;;;15.88;6.70;;;8.20;84.90;;;;;;10484275;28;20421;-67
2022/03/04 00:47:39;;;;;;;14.88;5.95;;;8.10;85.00;;;;;;10477008;28;20029;-65
2022/03/04 00:52:40;;;;;;;11.60;5.55;;;8.10;85.10;;;;;;10484791;28;20036;-68
2022/03/04 00:57:40;;;;;;;12.75;6.15;;;8.10;85.10;;;;;;10484791;28;20024;-67
2022/03/04 01:02:41;;;;;;;14.90;6.97;;;8.10;85.10;;;;;;10478655;28;20025;-66
2022/03/04 01:07:43;;;;;;;13.80;6.50;;;8.10;85.20;;;;;;10477193;28;20032;-62
2022/03/04 01:12:45;;;;;;;13.55;5.40;;;8.00;85.20;;;;;;10483742;28;20082;-67
2022/03/04 01:17:46;;;;;;;12.57;5.10;;;8.00;85.30;;;;;;10479068;28;20070;-62
2022/03/04 01:22:47;;;;;;;12.63;5.88;;;8.00;85.30;;;;;;10450381;28;20033;-65
2022/03/04 01:27:48;;;;;;;10.52;5.40;;;8.00;85.40;;;;;;10475530;28;20087;-68
2022/03/04 01:32:48;;;;;;;12.45;5.75;;;8.00;85.50;;;;;;10482789;28;20411;-67
2022/03/04 01:37:49;;;;;;;13.02;5.68;;;7.90;85.40;;;;;;10483910;28;20033;-68
2022/03/04 01:42:50;;;;;;;13.18;5.10;;;8.20;85.60;;;;;;10484014;28;20033;-67
2022/03/04 01:47:51;;;;;;;11.20;5.75;;;7.90;85.60;;;;;;10483654;28;20388;-66
2022/03/04 01:52:53;;;;;;;11.05;5.30;;;7.80;86.10;;;;;;10484532;28;20043;-66
2022/03/04 01:57:53;;;;;;;11.95;5.28;;;7.80;85.60;;;;;;10482208;28;20281;-68
2022/03/04 02:02:57;;;;;;;10.45;5.10;;;7.80;85.60;;;;;;10479855;28;20033;-62
2022/03/04 02:07:57;;;;;;;12.23;5.35;;;7.80;85.70;;;;;;10488223;28;20071;-66
2022/03/04 02:12:58;;;;;;;11.27;5.25;;;7.70;86.30;;;;;;10477200;28;20055;-63
2022/03/04 02:17:59;;;;;;;9.55;4.60;;;7.70;85.70;;;;;;10469699;28;20025;-66
2022/03/04 02:23:00;;;;;;;13.10;5.70;;;7.70;85.80;;;;;;10472527;28;20036;-63
2022/03/04 02:28:00;;;;;;;10.13;4.70;;;7.60;85.80;;;;;;10482211;28;20489;-66
2022/03/04 02:33:01;;;;;;;10.60;4.80;;;7.60;85.80;;;;;;10487283;28;20072;-68
2022/03/04 02:38:03;;;;;;;11.23;5.22;;;7.80;86.00;;;;;;10489654;28;20039;-62
2022/03/04 02:43:04;;;;;;;9.70;5.07;;;7.60;85.90;;;;;;10489354;28;20029;-61
2022/03/04 02:48:05;;;;;;;11.43;5.05;;;7.60;86.00;;;;;;10488969;28;20082;-68
2022/03/04 02:53:06;;;;;;;9.65;4.57;;;7.50;86.00;;;;;;10488859;28;20056;-68
2022/03/04 02:58:07;;;;;;;9.30;4.18;;;7.50;86.00;;;;;;10485980;28;20025;-67
2022/03/04 03:03:10;;;;;;;10.23;4.50;;;7.50;86.00;;;;;;10486343;28;20066;-67
2022/03/04 03:08:11;;;;;;;11.95;4.80;;;7.50;86.00;;;;;;10478729;28;20146;-67
2022/03/04 03:13:12;;;;;;;9.27;4.35;;;7.50;86.00;;;;;;10479585;28;20436;-65
2022/03/04 03:18:13;;;;;;;9.90;4.43;;;7.40;86.00;;;;;;10448781;28;20029;-67
2022/03/04 03:23:14;;;;;;;9.43;4.97;;;7.40;86.10;;;;;;10478962;28;20486;-67
2022/03/04 03:28:15;;;;;;;9.90;4.65;;;7.40;86.10;;;;;;10485664;28;20507;-65
2022/03/04 03:33:16;;;;;;;8.38;4.63;;;7.30;86.60;;;;;;10477790;28;20056;-68
2022/03/04 03:38:17;;;;;;;10.38;4.40;;;7.40;86.20;;;;;;10487152;28;20641;-70
2022/03/04 03:43:17;;;;;;;11.70;4.78;;;7.30;86.10;;;;;;10486618;28;20174;-65
2022/03/04 03:48:18;;;;;;;11.60;5.40;;;7.30;86.20;;;;;;10486542;28;20526;-65
2022/03/04 03:53:19;;;;;;;13.65;5.00;;;7.30;86.20;;;;;;10486640;28;20044;-67
2022/03/04 03:58:20;;;;;;;10.20;4.80;;;7.30;86.10;;;;;;10481369;28;20028;-67
2022/03/04 04:03:21;;;;;;;10.50;4.85;;;7.20;86.00;;;;;;10478517;28;20136;-69
2022/03/04 04:08:22;;;;;;;11.75;4.70;;;7.20;86.10;;;;;;10477635;28;20032;-69
2022/03/04 04:13:23;;;;;;;11.02;4.90;;;7.20;86.10;;;;;;10485324;28;20054;-68
2022/03/04 04:18:24;;;;;;;10.82;5.13;;;7.20;86.30;;;;;;10461620;28;20120;-70
2022/03/04 04:23:24;;;;;;;12.32;5.25;;;7.20;86.30;;;;;;10469496;28;20554;-69
2022/03/04 04:28:28;;;;;;;12.20;5.72;;;7.10;86.10;;;;;;10477031;28;20039;-65
2022/03/04 04:33:31;;;;;;;15.68;5.63;;;7.10;86.10;;;;;;10475959;28;20048;-64
2022/03/04 04:38:32;;;;;;;12.82;5.82;;;7.10;86.20;;;;;;10481946;28;20116;-69
2022/03/04 04:43:33;;;;;;;13.10;5.47;;;7.10;86.10;;;;;;10473553;28;20131;-69
2022/03/04 04:48:34;;;;;;;11.93;5.65;;;7.10;86.20;;;;;;10472152;28;20028;-67
2022/03/04 04:53:35;;;;;;;14.45;5.63;;;7.00;86.10;;;;;;10485487;28;20057;-66
2022/03/04 04:58:36;;;;;;;15.43;6.75;;;7.00;86.10;;;;;;10473279;28;20021;-68
2022/03/04 05:03:36;;;;;;;11.88;5.53;;;7.00;86.20;;;;;;10469942;28;20028;-67
2022/03/04 05:08:37;;;;;;;12.95;5.78;;;7.20;86.30;;;;;;10474380;28;20021;-65
2022/03/04 05:13:38;;;;;;;14.70;6.20;;;6.90;86.40;;;;;;10485428;28;20563;-68
2022/03/04 05:18:39;;;;;;;13.93;6.10;;;7.30;86.40;;;;;;10471844;28;20021;-65
2022/03/04 05:29:00;;;;;;;14.38;6.45;;;6.90;86.20;;;;;;10477955;28;20051;-62
2022/03/04 05:34:01;;;;;;;16.27;6.68;;;6.80;86.20;;;;;;10490302;28;20449;-64
2022/03/04 05:39:02;;;;;;;15.73;6.40;;;6.80;86.20;;;;;;10492001;28;20086;-66
2022/03/04 05:44:06;;;;;;;14.32;6.65;;;6.80;86.20;;;;;;10498324;28;20038;-69
2022/03/04 05:49:07;;;;;;;16.38;7.38;;;6.80;86.20;;;;;;10478982;28;20036;-68
2022/03/04 05:54:07;;;;;;;15.60;7.03;;;6.80;86.20;;;;;;10492225;28;20043;-67
2022/03/04 05:59:08;;;;;;;16.15;7.32;;;6.70;86.10;;;;;;10487700;28;20079;-67
2022/03/04 06:04:09;;;;;;;15.65;6.75;;;6.70;86.00;;;;;;10491964;28;20415;-66
2022/03/04 06:09:10;;;;;;;18.27;7.88;;;6.70;86.10;;;;;;10483711;28;20024;-68
2022/03/04 06:14:11;;;;;;;16.88;7.45;;;5.40;85.40;;;;;;10491202;28;20412;-68
2022/03/04 06:19:11;;;;;;;17.63;6.97;;;6.90;86.30;;;;;;10479207;28;20103;-67
2022/03/04 06:24:12;;;;;;;17.08;7.93;;;6.60;86.30;;;;;;10463352;28;20109;-64
2022/03/04 06:29:13;;;;;;;18.05;7.53;;;6.60;86.40;;;;;;10483283;28;20073;-66
2022/03/04 06:34:14;;;;;;;17.15;7.80;;;6.60;86.40;;;;;;10480413;28;20059;-68
2022/03/04 06:39:14;;;;;;;17.17;7.22;;;6.60;86.50;;;;;;10489421;28;20146;-65
2022/03/04 06:44:15;;;;;;;19.55;8.23;;;6.60;86.50;;;;;;10489225;28;20020;-67
2022/03/04 06:49:16;;;;;;;17.88;7.97;;;6.60;86.40;;;;;;10475733;28;20035;-68
2022/03/04 06:54:17;;;;;;;15.52;6.45;;;6.60;86.40;;;;;;10480412;28;20047;-68
2022/03/04 06:59:17;;;;;;;17.02;7.18;;;6.60;86.50;;;;;;10468884;28;20399;-68
2022/03/04 07:04:18;;;;;;;17.63;7.45;;;6.60;86.50;;;;;;10488736;28;20517;-69
2022/03/04 07:09:19;;;;;;;16.15;7.30;;;6.60;86.50;;;;;;10473041;28;20536;-66
2022/03/04 07:14:19;;;;;;;16.65;8.00;;;6.60;86.40;;;;;;10487758;28;20064;-66
2022/03/04 07:19:20;;;;;;;20.50;8.55;;;6.60;86.40;;;;;;10475700;28;20412;-68
2022/03/04 07:24:21;;;;;;;16.23;7.93;;;6.60;86.40;;;;;;10474111;28;20051;-68
2022/03/04 07:29:22;;;;;;;16.17;7.10;;;6.60;86.40;;;;;;10481568;28;20429;-66
2022/03/04 07:34:24;;;;;;;16.85;7.78;;;6.60;86.30;;;;;;10480489;28;20152;-69
2022/03/04 07:39:24;;;;;;;17.63;7.82;;;6.60;86.30;;;;;;10487129;28;20059;-68
2022/03/04 07:44:25;;;;;;;18.77;8.25;;;6.60;86.20;;;;;;10492573;28;20075;-69
2022/03/04 07:49:26;;;;;;;22.48;8.20;;;6.70;86.20;;;;;;10486588;28;20025;-68
2022/03/04 07:54:26;;;;;;;17.33;8.27;;;6.60;86.20;;;;;;10478583;28;20402;-67
2022/03/04 07:59:27;;;;;;;18.35;7.82;;;6.60;86.30;;;;;;10464611;28;20025;-69
2022/03/04 08:04:28;;;;;;;19.38;8.32;;;6.60;86.30;;;;;;10472051;28;20033;-68
2022/03/04 08:09:29;;;;;;;22.23;8.43;;;6.60;86.30;;;;;;10478775;28;20025;-68
2022/03/04 08:14:29;;;;;;;17.70;7.45;;;6.60;86.20;;;;;;10466374;28;20710;-67
2022/03/04 08:19:31;;;;;;;16.95;7.90;;;6.60;86.20;;;;;;10474951;28;20029;-68
2022/03/04 08:24:33;;;;;;;20.88;8.55;;;6.70;86.20;;;;;;10468850;28;20398;-72
2022/03/04 08:29:37;;;;;;;17.98;8.73;;;6.70;86.20;;;;;;10468973;28;20064;-67
2022/03/04 08:34:37;;;;;;;22.48;8.45;;;6.70;86.20;;;;;;10469149;28;20402;-68
2022/03/04 08:39:41;;;;;;;19.23;8.07;;;6.70;86.10;;;;;;10448194;28;20130;-63
2022/03/04 08:44:42;;;;;;;22.10;8.88;;;6.70;86.20;;;;;;10455916;28;20056;-67
2022/03/04 08:49:43;;;;;;;20.60;8.85;;;6.80;86.20;;;;;;10451263;28;20453;-66
2022/03/04 08:54:43;;;;;;;20.17;8.35;;;6.70;86.10;;;;;;10452077;28;20046;-66
2022/03/04 08:59:44;;;;;;;21.65;8.68;;;6.80;86.10;;;;;;10449485;28;20043;-66
2022/03/04 09:04:45;;;;;;;19.80;8.43;;;6.80;86.00;;;;;;10464030;28;20035;-68
2022/03/04 09:09:46;;;;;;;24.85;9.55;;;6.80;86.00;;;;;;10477153;28;20021;-70
2022/03/04 09:14:47;;;;;;;19.30;8.57;;;7.80;86.70;;;;;;10451368;28;20041;-64
2022/03/04 09:19:47;;;;;;;21.23;9.90;;;6.80;85.90;;;;;;10467087;28;20075;-68
2022/03/04 09:24:48;;;;;;;23.25;10.07;;;6.80;85.90;;;;;;10459727;28;20032;-68
2022/03/04 09:29:49;;;;;;;20.48;9.65;;;6.90;86.40;;;;;;10476668;28;20028;-70
2022/03/04 09:34:50;;;;;;;19.02;9.38;;;7.00;86.30;;;;;;10492107;28;20048;-59
2022/03/04 09:39:51;;;;;;;22.45;9.35;;;7.00;86.00;;;;;;10479213;28;20530;-65
2022/03/04 09:44:52;;;;;;;24.05;8.65;;;7.10;85.90;;;;;;10491666;28;20104;-63
2022/03/04 09:49:53;;;;;;;23.88;9.48;;;7.10;85.80;;;;;;10490029;28;20124;-67
2022/03/04 09:54:55;;;;;;;23.58;10.15;;;7.20;86.20;;;;;;10475042;28;20064;-68
2022/03/04 09:59:56;;;;;;;25.58;10.48;;;7.30;86.30;;;;;;10476815;28;20029;-68
2022/03/04 10:05:01;;;;;;;23.15;9.43;;;7.30;86.30;;;;;;10487427;28;20120;-72
2022/03/04 10:10:02;;;;;;;21.52;10.40;;;7.40;86.40;;;;;;10434956;28;20028;-69
2022/03/04 10:15:07;;;;;;;23.63;10.52;;;7.50;86.50;;;;;;10465345;28;20067;-71
2022/03/04 10:20:14;;;;;;;23.27;10.15;;;7.60;86.40;;;;;;10454420;28;20271;-70
2022/03/04 10:25:21;;;;;;;24.67;10.38;;;7.30;86.10;;;;;;10449633;28;20029;-72
2022/03/04 10:30:32;;;;;;;23.10;9.23;;;7.80;86.20;;;;;;10472496;28;20020;-66
2022/03/04 10:35:33;;;;;;;21.38;8.80;;;8.00;86.40;;;;;;10489077;28;20199;-71
2022/03/04 10:40:42;;;;;;;24.95;9.93;;;7.90;86.20;;;;;;10481136;28;20021;-69
2022/03/04 10:45:44;;;;;;;;;;;8.00;86.10;;;;;;10460533;28;20060;-66
2022/03/04 10:50:50;;;;;;;24.33;8.40;;;8.00;86.70;;;;;;10474881;28;19950;-72
2022/03/04 10:56:04;;;;;;;24.77;9.95;;;8.10;85.90;;;;;;10474749;28;20139;-68
2022/03/04 11:01:24;;;;;;;21.92;9.45;;;8.20;85.90;;;;;;10475855;28;20036;-72
2022/03/04 11:06:25;;;;;;;19.88;9.23;;;8.30;85.90;;;;;;10479959;28;20510;-72
2022/03/04 11:11:26;;;;;;;21.58;8.38;;;8.40;87.10;;;;;;10463074;28;20080;-68
2022/03/04 11:16:28;;;;;;;23.80;9.25;;;8.50;86.10;;;;;;10483339;28;20546;-73
2022/03/04 11:21:29;;;;;;;22.17;9.38;;;8.50;86.10;;;;;;10480816;28;20391;-69
2022/03/04 11:26:31;;;;;;;19.15;8.68;;;8.60;86.00;;;;;;10481881;28;20023;-73
2022/03/04 11:31:32;;;;;;;25.23;9.45;;;8.60;86.00;;;;;;10468866;28;20739;-73
2022/03/04 11:36:39;;;;;;;22.17;8.80;;;8.70;85.90;;;;;;10483178;28;20052;-69
2022/03/04 11:42:03;;;;;;;24.00;9.70;;;8.80;86.40;;;;;;10468265;28;20052;-71
2022/03/04 11:47:08;;;;;;;19.30;8.48;;;8.00;87.60;;;;;;10468308;28;20131;-72
2022/03/04 11:52:09;;;;;;;24.45;9.60;;;8.80;87.20;;;;;;10485703;28;20037;-70
2022/03/04 11:57:27;;;;;;;22.83;8.45;;;8.80;87.10;;;;;;10485471;28;20565;-75
2022/03/04 12:02:58;;;;;;;21.20;8.93;;;8.90;88.20;;;;;;10483447;28;20104;-74
2022/03/04 12:07:59;;;;;;;22.35;9.60;;;9.00;88.30;;;;;;10479225;28;20041;-73
2022/03/04 12:13:09;;;;;;;24.38;9.23;;;9.00;87.40;;;;;;10473602;28;20055;-70
2022/03/04 12:18:37;;;;;;;23.98;9.10;;;9.00;87.70;;;;;;10471480;28;20542;-70
2022/03/04 12:23:42;;;;;;;;;;;9.10;89.20;;;;;;10464886;28;20049;-69
2022/03/04 12:28:48;;;;;;;23.92;9.32;;;9.10;89.60;;;;;;10475686;28;19912;-73
2022/03/04 12:33:54;;;;;;;20.90;8.75;;;9.20;88.40;;;;;;10466668;28;20052;-73
2022/03/04 12:38:59;;;;;;;22.25;9.38;;;9.20;88.50;;;;;;10467904;28;20029;-69
2022/03/04 12:44:03;;;;;;;23.38;9.07;;;9.20;88.50;;;;;;10453692;28;20029;-68
2022/03/04 12:49:05;;;;;;;22.08;8.90;;;9.20;88.40;;;;;;10479137;28;20078;-67
2022/03/04 12:54:13;;;;;;;22.02;8.85;;;9.20;88.50;;;;;;10459037;28;20131;-70
2022/03/04 12:59:14;;;;;;;21.02;8.73;;;9.20;88.50;;;;;;10452354;28;20487;-70
2022/03/04 13:04:15;;;;;;;18.85;8.02;;;8.40;88.10;;;;;;10476777;28;20028;-69
2022/03/04 13:09:15;;;;;;;19.23;8.70;;;9.20;88.50;;;;;;10469889;28;20029;-74
2022/03/04 13:14:18;;;;;;;19.90;8.48;;;9.20;88.50;;;;;;10478434;28;20032;-70
2022/03/04 13:19:20;;;;;;;21.45;8.32;;;9.30;88.70;;;;;;10467781;28;20380;-71
2022/03/04 13:24:33;;;;;;;17.67;7.88;;;9.20;88.80;;;;;;10483030;28;20574;-70
2022/03/04 13:29:39;;;;;;;21.13;7.57;;;9.30;88.90;;;;;;10470625;28;20036;-72
2022/03/04 13:34:46;;;;;;;24.38;8.77;;;9.30;88.80;;;;;;10474328;28;20080;-66
2022/03/04 13:40:01;;;;;;;20.90;8.27;;;9.20;88.80;;;;;;10481772;28;20535;-72
2022/03/04 13:45:05;;;;;;;18.70;7.07;;;9.50;89.40;;;;;;10475593;28;20029;-73
2022/03/04 13:50:21;;;;;;;18.58;8.02;;;9.30;88.90;;;;;;10479494;28;20025;-70
2022/03/04 13:55:56;;;;;;;20.50;8.25;;;9.30;88.80;;;;;;10491329;28;20113;-73
2022/03/04 14:01:05;;;;;;;20.10;7.50;;;9.40;89.10;;;;;;10480539;28;20039;-73
2022/03/04 14:06:08;;;;;;;16.10;7.10;;;9.40;88.50;;;;;;10478875;28;20036;-72
2022/03/04 14:11:10;;;;;;;14.88;6.68;;;9.50;88.20;;;;;;10481270;28;20645;-71
2022/03/04 14:16:12;;;;;;;14.65;6.72;;;9.60;88.20;;;;;;10463684;28;20043;-71
2022/03/04 14:21:13;;;;;;;14.55;6.38;;;9.60;87.80;;;;;;10460582;28;20441;-70
2022/03/04 14:26:13;;;;;;;16.77;6.50;;;9.70;87.40;;;;;;10464932;28;20025;-70
2022/03/04 14:31:14;;;;;;;14.43;6.43;;;9.90;87.50;;;;;;10475821;28;20132;-69
2022/03/04 14:36:15;;;;;;;12.80;5.68;;;10.00;87.40;;;;;;10479636;28;20060;-70
2022/03/04 14:41:15;;;;;;;16.00;6.28;;;10.10;87.20;;;;;;10475203;28;20119;-69
2022/03/04 14:46:16;;;;;;;15.68;6.68;;;10.10;87.10;;;;;;10487039;28;20024;-70
2022/03/04 14:51:17;;;;;;;14.02;6.10;;;10.20;87.00;;;;;;10489092;28;20031;-70
2022/03/04 14:56:18;;;;;;;13.95;6.00;;;10.30;86.90;;;;;;10489359;28;20079;-69
2022/03/04 15:01:19;;;;;;;12.45;5.93;;;10.40;86.80;;;;;;10475228;28;20078;-70
2022/03/04 15:06:21;;;;;;;13.55;5.47;;;10.40;86.40;;;;;;10486296;28;20056;-72
2022/03/04 15:11:22;;;;;;;12.63;5.93;;;10.50;86.50;;;;;;10488216;28;20039;-68
2022/03/04 15:16:23;;;;;;;14.80;6.22;;;10.60;86.10;;;;;;10487432;28;20024;-72
2022/03/04 15:21:24;;;;;;;12.70;5.43;;;10.60;85.90;;;;;;10454236;28;20098;-70
2022/03/04 15:26:25;;;;;;;15.73;5.82;;;10.70;85.30;;;;;;10482513;28;20029;-69
2022/03/04 15:31:26;;;;;;;15.82;6.32;;;10.80;84.90;;;;;;10485906;28;20033;-67
2022/03/04 15:36:26;;;;;;;14.85;5.80;;;10.80;84.80;;;;;;10488537;28;20409;-69
2022/03/04 15:41:27;;;;;;;15.93;6.75;;;10.70;85.20;;;;;;10474290;28;20536;-70
2022/03/04 15:46:28;;;;;;;19.10;6.57;;;10.60;85.10;;;;;;10486070;28;20040;-69
2022/03/04 15:51:29;;;;;;;18.92;7.00;;;10.50;85.70;;;;;;10482229;28;20553;-69
2022/03/04 15:56:30;;;;;;;15.43;5.75;;;10.40;86.50;;;;;;10486714;28;20128;-66
2022/03/04 16:01:32;;;;;;;13.80;5.97;;;10.30;87.10;;;;;;10479894;28;20033;-67
2022/03/04 16:06:33;;;;;;;13.68;5.97;;;10.30;87.70;;;;;;10479291;28;20066;-69
2022/03/04 16:11:34;;;;;;;14.10;6.03;;;10.20;87.90;;;;;;10485729;28;20032;-69
2022/03/04 16:16:36;;;;;;;14.45;5.90;;;10.20;88.10;;;;;;10461778;28;20024;-69
2022/03/04 16:21:37;;;;;;;13.02;5.63;;;10.10;88.20;;;;;;10462707;28;20029;-70
2022/03/04 16:26:38;;;;;;;14.48;6.15;;;10.10;88.40;;;;;;10482415;28;20024;-69
2022/03/04 16:31:38;;;;;;;15.43;6.20;;;10.00;88.70;;;;;;10477949;28;20048;-70
2022/03/04 16:36:39;;;;;;;15.15;5.60;;;10.00;88.90;;;;;;10485289;28;20048;-68
2022/03/04 16:41:40;;;;;;;16.92;6.75;;;10.00;89.10;;;;;;10471680;28;20817;-68
2022/03/04 16:46:44;;;;;;;15.90;6.38;;;9.90;89.20;;;;;;10484688;28;20108;-70
2022/03/04 16:51:45;;;;;;;16.52;6.47;;;9.90;89.60;;;;;;10471314;28;20036;-70
2022/03/04 16:56:46;;;;;;;13.93;5.80;;;9.90;89.70;;;;;;10484956;28;20074;-69
2022/03/04 17:01:46;;;;;;;15.38;6.63;;;9.90;89.80;;;;;;10471386;28;20037;-69
2022/03/04 17:06:47;;;;;;;14.60;6.45;;;9.80;89.80;;;;;;10476794;28;20029;-70
2022/03/04 17:11:48;;;;;;;13.70;6.20;;;9.80;90.00;;;;;;10484522;28;20399;-68
2022/03/04 17:16:48;;;;;;;15.73;6.95;;;9.70;90.00;;;;;;10458761;28;20063;-69
2022/03/04 17:21:49;;;;;;;17.10;7.22;;;9.70;90.10;;;;;;10460081;28;20036;-70
2022/03/04 17:26:50;;;;;;;16.20;6.80;;;9.70;90.10;;;;;;10488599;28;20226;-70
2022/03/04 17:31:51;;;;;;;16.60;7.55;;;9.60;90.10;;;;;;10490470;28;20054;-69
2022/03/04 17:36:51;;;;;;;17.48;7.43;;;9.50;90.10;;;;;;10491599;28;20143;-67
2022/03/04 17:41:52;;;;;;;18.27;7.43;;;9.60;90.20;;;;;;10478548;28;20437;-69
2022/03/04 17:46:53;;;;;;;16.95;7.25;;;9.60;90.20;;;;;;10486486;28;20024;-69
2022/03/04 17:51:55;;;;;;;18.63;7.28;;;9.50;90.30;;;;;;10481335;28;20540;-69
2022/03/04 17:56:56;;;;;;;18.38;7.18;;;9.40;90.30;;;;;;10491518;28;20033;-64
2022/03/04 18:01:56;;;;;;;19.38;7.60;;;9.40;90.20;;;;;;10474204;28;20052;-70
2022/03/04 18:06:57;;;;;;;15.35;7.22;;;9.40;90.30;;;;;;10483327;28;20032;-70
2022/03/04 18:11:58;;;;;;;17.90;7.65;;;9.30;90.30;;;;;;10490930;28;20582;-67
2022/03/04 18:16:58;;;;;;;19.20;7.22;;;9.30;90.20;;;;;;10490728;28;20035;-69
2022/03/04 18:21:59;;;;;;;17.02;7.40;;;9.30;90.30;;;;;;10453479;28;20076;-67
2022/03/04 18:27:00;;;;;;;15.10;6.65;;;9.20;90.30;;;;;;10490186;28;20020;-68
2022/03/04 18:32:01;;;;;;;17.20;6.72;;;9.30;90.20;;;;;;10487226;28;20049;-69
2022/03/04 18:37:02;;;;;;;16.20;6.40;;;9.20;90.20;;;;;;10489239;28;20040;-68
2022/03/04 18:42:03;;;;;;;14.82;6.95;;;9.10;90.20;;;;;;10482823;28;20097;-63
2022/03/04 18:47:05;;;;;;;17.23;7.20;;;9.10;90.20;;;;;;10464867;28;20028;-67
2022/03/04 18:52:05;;;;;;;14.35;6.65;;;9.10;90.20;;;;;;10462580;28;20041;-66
2022/03/04 18:57:06;;;;;;;15.55;7.20;;;9.00;90.20;;;;;;10482659;28;20047;-69
2022/03/04 19:02:07;;;;;;;15.45;6.60;;;9.00;90.20;;;;;;10468406;28;20120;-68
2022/03/04 19:07:09;;;;;;;14.00;6.10;;;9.00;90.10;;;;;;10482487;28;20020;-68
2022/03/04 19:12:09;;;;;;;14.35;6.35;;;8.90;90.20;;;;;;10481783;28;20490;-69
2022/03/04 19:17:12;;;;;;;15.15;6.47;;;8.90;90.10;;;;;;10460009;28;20729;-68
2022/03/04 19:22:13;;;;;;;15.93;6.30;;;8.90;90.10;;;;;;10470319;28;20079;-69
2022/03/04 19:27:14;;;;;;;13.90;6.70;;;8.80;90.10;;;;;;10469380;28;20108;-70
2022/03/04 19:32:15;;;;;;;14.75;6.32;;;8.80;90.10;;;;;;10473797;28;20725;-68
2022/03/04 19:37:16;;;;;;;16.52;6.40;;;8.80;90.10;;;;;;10465416;28;20067;-68
2022/03/04 19:42:16;;;;;;;14.50;6.22;;;8.80;90.10;;;;;;10450800;28;20163;-70
2022/03/04 19:47:17;;;;;;;15.05;7.00;;;8.70;90.00;;;;;;10461611;28;20036;-69
2022/03/04 19:52:18;;;;;;;14.30;6.43;;;8.70;90.00;;;;;;10465136;28;20530;-62
2022/03/04 19:57:19;;;;;;;15.27;5.97;;;8.70;90.00;;;;;;10466844;28;20048;-60
2022/03/04 20:02:19;;;;;;;15.55;6.00;;;8.60;90.00;;;;;;10481110;28;20369;-65
2022/03/04 20:07:20;;;;;;;14.00;6.05;;;8.60;90.00;;;;;;10482466;28;20025;-69
2022/03/04 20:12:21;;;;;;;13.65;6.03;;;8.60;90.00;;;;;;10482995;28;20046;-69
2022/03/04 20:17:22;;;;;;;13.88;5.53;;;8.60;90.00;;;;;;10482401;28;20465;-67
2022/03/04 20:22:23;;;;;;;16.05;6.47;;;8.50;90.00;;;;;;10483433;28;20028;-65
2022/03/04 20:27:24;;;;;;;12.65;5.57;;;8.50;90.00;;;;;;10471785;28;20504;-67
2022/03/04 20:32:25;;;;;;;13.02;5.68;;;8.50;90.00;;;;;;10484569;28;20174;-68
2022/03/04 20:37:26;;;;;;;13.13;6.03;;;8.50;90.10;;;;;;10475949;28;20057;-67
2022/03/04 20:42:27;;;;;;;11.32;6.18;;;8.40;90.10;;;;;;10473999;28;20032;-65
2022/03/04 20:47:28;;;;;;;10.90;5.53;;;8.40;90.10;;;;;;10455610;28;20431;-67
2022/03/04 20:52:29;;;;;;;13.18;5.95;;;8.40;90.00;;;;;;10467718;28;20043;-69
2022/03/04 20:57:29;;;;;;;10.55;5.22;;;8.30;90.00;;;;;;10477678;28;20103;-69
2022/03/04 21:02:30;;;;;;;10.88;5.65;;;8.30;90.00;;;;;;10479453;28;20089;-67
2022/03/04 21:07:31;;;;;;;13.32;6.18;;;8.30;90.00;;;;;;10479190;28;20053;-69
2022/03/04 21:12:32;;;;;;;11.95;5.57;;;8.30;90.10;;;;;;10463999;28;20044;-68
2022/03/04 21:17:33;;;;;;;12.77;5.60;;;8.20;90.00;;;;;;10479874;28;20032;-68
2022/03/04 21:22:34;;;;;;;12.15;5.07;;;8.20;90.00;;;;;;10477481;28;20036;-69
2022/03/04 21:27:35;;;;;;;10.05;4.75;;;8.20;90.00;;;;;;10481176;28;20029;-69
2022/03/04 21:32:36;;;;;;;11.07;5.18;;;8.10;90.00;;;;;;10478141;28;20049;-66
2022/03/04 21:37:37;;;;;;;10.95;5.28;;;8.10;90.00;;;;;;10477171;28;20667;-77
2022/03/04 21:42:37;;;;;;;12.95;5.57;;;8.10;90.00;;;;;;10464412;28;20040;-73
2022/03/04 21:47:39;;;;;;;8.98;4.43;;;8.00;90.00;;;;;;10470386;28;20423;-69
2022/03/04 21:52:40;;;;;;;11.88;5.72;;;8.00;90.00;;;;;;10472380;28;20123;-71
2022/03/04 21:57:40;;;;;;;10.65;5.07;;;8.10;90.00;;;;;;10479259;28;20037;-76
2022/03/04 22:02:42;;;;;;;9.50;4.97;;;7.90;89.90;;;;;;10454816;28;20040;-70
2022/03/04 22:07:42;;;;;;;12.15;4.82;;;7.90;90.00;;;;;;10477702;28;20025;-67
2022/03/04 22:12:43;;;;;;;9.90;4.93;;;7.90;90.00;;;;;;10484958;28;20060;-68
2022/03/04 22:17:44;;;;;;;9.50;4.57;;;7.90;90.00;;;;;;10478130;28;20045;-68
2022/03/04 22:22:45;;;;;;;9.25;5.00;;;7.80;89.90;;;;;;10467223;28;20039;-69
2022/03/04 22:27:45;;;;;;;8.55;4.63;;;8.10;90.00;;;;;;10475254;28;20025;-68
2022/03/04 22:32:46;;;;;;;10.20;4.90;;;7.80;89.90;;;;;;10464550;28;20039;-69
2022/03/04 22:37:47;;;;;;;9.63;4.95;;;7.80;89.90;;;;;;10443299;28;20058;-69
2022/03/04 22:42:47;;;;;;;9.88;4.97;;;7.70;89.80;;;;;;10463738;28;20423;-69
2022/03/04 22:47:48;;;;;;;10.25;4.97;;;7.70;89.80;;;;;;10463809;28;20021;-69
2022/03/04 22:52:49;;;;;;;9.30;4.47;;;7.70;89.70;;;;;;10480591;28;20029;-68
2022/03/04 22:57:50;;;;;;;10.15;4.95;;;7.70;89.70;;;;;;10486861;28;20033;-67
2022/03/04 23:08:11;;;;;;;8.82;5.15;;;7.60;89.70;;;;;;10478652;28;20036;-68
2022/03/04 23:13:12;;;;;;;9.35;4.82;;;7.70;89.70;;;;;;10486597;28;20037;-67
2022/03/04 23:18:13;;;;;;;9.60;5.07;;;7.50;89.50;;;;;;10476755;28;20021;-66
2022/03/04 23:23:14;;;;;;;11.85;4.95;;;7.50;89.50;;;;;;10473573;28;20039;-70
2022/03/04 23:28:15;;;;;;;10.82;5.07;;;7.50;89.50;;;;;;10486659;28;20486;-69
2022/03/04 23:33:16;;;;;;;9.52;4.32;;;7.50;89.40;;;;;;10478821;28;20190;-70
2022/03/04 23:38:17;;;;;;;10.18;5.75;;;7.50;89.40;;;;;;10483496;28;20545;-68
2022/03/04 23:43:17;;;;;;;8.50;4.25;;;7.40;89.30;;;;;;10485960;28;20040;-68
2022/03/04 23:48:21;;;;;;;12.07;5.05;;;7.40;89.30;;;;;;10486263;28;20082;-67
2022/03/04 23:53:23;;;;;;;10.90;5.55;;;7.40;89.20;;;;;;10478766;28;20048;-67
2022/03/04 23:58:25;;;;;;;11.13;5.07;;;7.40;89.20;;;;;;10481153;28;20104;-66
